Martindale, Pennsylvania
Current Conditions -  °F | °C
As of 4:53 PM on Thursday 27 Nov 2014 (Local Time) from KLNS Reporting Station
Scattered Clouds Scattered Clouds  
Wind Chill: 30°   Ceiling: Unl
Heat Index: 34°   Visibility: 10mi
Dew Point: 27°   Wind: 5mph
Humidity: 75%   Direction: 330°NNW
Pressure: 30.06"   Gusts: NA
Location:  40.15°N, 76.08°W
Report Text: KLNS 272153Z 33004KT 10SM SCT065 01/M03 A3006 RMK AO2 SLP182 T00111028
Loading
Personal Weather Stations






























Interactive Weather Map New forecast layout! Learn more

10-Day Weather Forecast

Advertisements
Track Severe Weather on mobile